createdAt,value
2023-03-08T00:04:13.235Z,966.21
2023-03-08T00:19:15.194Z,966.13
2023-03-08T00:34:17.060Z,966.13
2023-03-08T00:49:18.896Z,966.1
2023-03-08T01:04:20.724Z,966.1
2023-03-08T01:19:22.527Z,966.11
2023-03-08T01:34:24.335Z,966.13
2023-03-08T01:49:26.262Z,966.2
2023-03-08T02:04:28.142Z,966.25
2023-03-08T02:19:29.998Z,966.3
2023-03-08T02:34:31.890Z,966.42
2023-03-08T02:49:33.795Z,966.52
2023-03-08T03:04:35.644Z,966.59
2023-03-08T03:19:37.527Z,966.63
2023-03-08T03:34:39.390Z,966.82
2023-03-08T03:49:41.221Z,966.9
2023-03-08T04:04:43.042Z,967.07
2023-03-08T04:19:44.900Z,967.21
2023-03-08T04:34:46.813Z,967.31
2023-03-08T04:49:48.643Z,967.41
2023-03-08T05:04:50.635Z,967.54
2023-03-08T05:19:52.553Z,967.59
2023-03-08T05:34:54.392Z,967.55
2023-03-08T05:49:56.235Z,967.59
2023-03-08T06:04:58.078Z,967.55
2023-03-08T06:19:59.927Z,967.55
2023-03-08T06:35:01.805Z,967.59
2023-03-08T06:50:03.700Z,967.55
2023-03-08T07:05:05.531Z,967.57
2023-03-08T07:20:07.369Z,967.63
2023-03-08T18:14:37.795Z,966.54
2023-03-08T18:29:41.226Z,966.4
2023-03-08T18:44:43.035Z,966.19
2023-03-08T18:59:44.854Z,966.01
2023-03-08T19:14:46.712Z,965.82
2023-03-08T19:29:48.558Z,965.71
2023-03-08T19:44:50.428Z,965.55
2023-03-08T19:59:52.285Z,965.3
2023-03-08T20:14:54.116Z,965.11
2023-03-08T20:29:56.118Z,964.98
2023-03-08T20:44:57.943Z,964.81
2023-03-08T20:59:59.870Z,964.44
2023-03-08T21:04:49.657Z,964.44
2023-03-08T21:19:51.551Z,964.33
2023-03-08T21:34:53.409Z,964.33
2023-03-08T21:49:55.277Z,964.3
2023-03-08T22:04:57.155Z,964.17
2023-03-08T22:19:59.032Z,964.13
2023-03-08T22:35:00.888Z,964.15
2023-03-08T22:50:02.792Z,964.09
2023-03-08T23:05:04.653Z,963.96
2023-03-08T23:20:06.491Z,963.85
2023-03-08T23:35:08.330Z,963.93
2023-03-08T23:50:10.186Z,963.72
